CheckWX is a tool to help pilots better visualize weather data.  It is not intended as a substitute for an official pre-flight weather briefing.

04:03:29 UTC

KVQQ TAF
Cecil Airport
Jacksonville, Florida, USA
KVQQ 110531Z 1106/1206 27005KT P6SM VCSH BKN040 BKN080 BKN200 FM111700 30008KT P6SM VCTS BKN040CB BKN080 PROB30 1117/1120 VRB15G25KT 3SM TSRA BKN025CB FM112000 15008KT P6SM VCTS BKN040CB BKN080 PROB30 1120/1123 VRB15G25KT 3SM TSRA BKN025CB FM112300 19006KT P6SM SCT040 SCT080 BKN200

Jul-11@
06:00 UTC

Jul-11 @ 06:00 UTC

Jul-11@
17:00 UTC

Jul-11 @ 17:00 UTC

TAF KVQQ 110531Z 1106/1206 27005KT P6SM VCSH BKN040 BKN080 BKN200

Expired

Wind
  • 270° at 5 KTS
Conditions
Area Showers
Cloud Levels
  • Broken at 4,000' AGL
  • Broken at 8,000' AGL
  • Broken at 20,000' AGL

Jul-11@
17:00 UTC

Jul-11 @ 17:00 UTC

Jul-11@
20:00 UTC

Jul-11 @ 20:00 UTC

FM111700 30008KT P6SM VCTS BKN040CB BKN080

Expired

Wind
  • 300° at 8 KTS
Conditions
Area Thunderstorm
Cloud Levels
  • Broken at 4,000' AGL
  • Broken at 8,000' AGL

Jul-11@
17:00 UTC

Jul-11 @ 17:00 UTC

Jul-11@
20:00 UTC

Jul-11 @ 20:00 UTC

PROB30 1117/1120 VRB15G25KT 3SM TSRA BKN025CB

Expired

Wind
  • Variable at 15 KTS
  • {Gusting to 25 KTS
Conditions
Thunderstorm, Rain
Cloud Levels
  • Broken at 2,500' AGL

Jul-11@
20:00 UTC

Jul-11 @ 20:00 UTC

Jul-11@
23:00 UTC

Jul-11 @ 23:00 UTC

FM112000 15008KT P6SM VCTS BKN040CB BKN080

Expired

Wind
  • 150° at 8 KTS
Conditions
Area Thunderstorm
Cloud Levels
  • Broken at 4,000' AGL
  • Broken at 8,000' AGL

Jul-11@
20:00 UTC

Jul-11 @ 20:00 UTC

Jul-11@
23:00 UTC

Jul-11 @ 23:00 UTC

PROB30 1120/1123 VRB15G25KT 3SM TSRA BKN025CB

Expired

Wind
  • Variable at 15 KTS
  • {Gusting to 25 KTS
Conditions
Thunderstorm, Rain
Cloud Levels
  • Broken at 2,500' AGL

Jul-11@
23:00 UTC

Jul-11 @ 23:00 UTC

Jul-12@
06:00 UTC

Jul-12 @ 06:00 UTC

FM112300 19006KT P6SM SCT040 SCT080 BKN200

From

From Standard forecast or significant change

Wind
  • 190° at 6 KTS
Cloud Levels
  • Scattered at 4,000' AGL
  • Scattered at 8,000' AGL
  • Broken at 20,000' AGL